sensor_id;sensor_type;location;lat;lon;timestamp;temperature;humidity
20337;DHT22;10326;53.660;10.200;2023-10-08T00:00:25;14.70;94.50
20337;DHT22;10326;53.660;10.200;2023-10-08T00:03:09;14.80;94.50
20337;DHT22;10326;53.660;10.200;2023-10-08T00:05:39;14.80;94.50
20337;DHT22;10326;53.660;10.200;2023-10-08T00:08:06;14.80;94.50
20337;DHT22;10326;53.660;10.200;2023-10-08T00:10:35;14.80;94.50
20337;DHT22;10326;53.660;10.200;2023-10-08T00:13:04;14.80;94.50
20337;DHT22;10326;53.660;10.200;2023-10-08T00:15:35;14.80;94.50
20337;DHT22;10326;53.660;10.200;2023-10-08T00:18:03;14.80;94.50
20337;DHT22;10326;53.660;10.200;2023-10-08T00:20:32;14.70;94.40
20337;DHT22;10326;53.660;10.200;2023-10-08T00:23:12;14.70;94.50
20337;DHT22;10326;53.660;10.200;2023-10-08T00:25:44;14.70;94.50
20337;DHT22;10326;53.660;10.200;2023-10-08T00:28:13;14.70;94.50
20337;DHT22;10326;53.660;10.200;2023-10-08T00:30:43;14.80;94.50
20337;DHT22;10326;53.660;10.200;2023-10-08T00:33:13;14.80;94.50
20337;DHT22;10326;53.660;10.200;2023-10-08T00:35:41;14.80;94.30
20337;DHT22;10326;53.660;10.200;2023-10-08T00:38:11;14.70;94.30
20337;DHT22;10326;53.660;10.200;2023-10-08T00:40:44;14.70;94.30
20337;DHT22;10326;53.660;10.200;2023-10-08T00:43:30;14.70;94.30
20337;DHT22;10326;53.660;10.200;2023-10-08T00:45:59;14.70;94.30
20337;DHT22;10326;53.660;10.200;2023-10-08T00:48:28;14.70;94.40
20337;DHT22;10326;53.660;10.200;2023-10-08T00:51:02;14.70;94.40
20337;DHT22;10326;53.660;10.200;2023-10-08T00:53:44;14.70;94.40
20337;DHT22;10326;53.660;10.200;2023-10-08T00:56:14;14.60;94.30
20337;DHT22;10326;53.660;10.200;2023-10-08T00:58:45;14.60;94.30
20337;DHT22;10326;53.660;10.200;2023-10-08T01:01:14;14.60;94.40
20337;DHT22;10326;53.660;10.200;2023-10-08T01:03:42;14.60;94.30
20337;DHT22;10326;53.660;10.200;2023-10-08T01:06:11;14.60;94.40
20337;DHT22;10326;53.660;10.200;2023-10-08T01:08:46;14.60;94.40
20337;DHT22;10326;53.660;10.200;2023-10-08T01:11:19;14.60;94.40
20337;DHT22;10326;53.660;10.200;2023-10-08T01:13:56;14.60;94.40
20337;DHT22;10326;53.660;10.200;2023-10-08T01:16:24;14.60;94.40
20337;DHT22;10326;53.660;10.200;2023-10-08T01:18:53;14.60;94.40
20337;DHT22;10326;53.660;10.200;2023-10-08T01:21:21;14.60;94.30
20337;DHT22;10326;53.660;10.200;2023-10-08T01:24:05;14.60;94.30
20337;DHT22;10326;53.660;10.200;2023-10-08T01:26:34;14.60;94.30
20337;DHT22;10326;53.660;10.200;2023-10-08T01:29:04;14.60;94.30
20337;DHT22;10326;53.660;10.200;2023-10-08T01:31:37;14.60;94.30
20337;DHT22;10326;53.660;10.200;2023-10-08T01:34:06;14.60;94.20
20337;DHT22;10326;53.660;10.200;2023-10-08T01:36:34;14.60;94.20
20337;DHT22;10326;53.660;10.200;2023-10-08T01:39:04;14.60;94.20
20337;DHT22;10326;53.660;10.200;2023-10-08T01:41:36;14.60;94.20
20337;DHT22;10326;53.660;10.200;2023-10-08T01:44:09;14.60;94.10
20337;DHT22;10326;53.660;10.200;2023-10-08T01:46:38;14.60;94.20
20337;DHT22;10326;53.660;10.200;2023-10-08T01:49:07;14.60;94.20
20337;DHT22;10326;53.660;10.200;2023-10-08T01:51:41;14.60;94.20
20337;DHT22;10326;53.660;10.200;2023-10-08T01:54:14;14.60;94.10
20337;DHT22;10326;53.660;10.200;2023-10-08T01:56:43;14.60;94.10
20337;DHT22;10326;53.660;10.200;2023-10-08T01:59:14;14.60;94.10
20337;DHT22;10326;53.660;10.200;2023-10-08T02:01:45;14.60;94.10
20337;DHT22;10326;53.660;10.200;2023-10-08T02:04:14;14.60;94.00
20337;DHT22;10326;53.660;10.200;2023-10-08T02:06:43;14.60;94.10
20337;DHT22;10326;53.660;10.200;2023-10-08T02:09:14;14.60;94.10
20337;DHT22;10326;53.660;10.200;2023-10-08T02:11:44;14.60;94.10
20337;DHT22;10326;53.660;10.200;2023-10-08T02:14:16;14.60;94.20
20337;DHT22;10326;53.660;10.200;2023-10-08T02:16:47;14.60;94.10
20337;DHT22;10326;53.660;10.200;2023-10-08T02:19:16;14.60;94.10
20337;DHT22;10326;53.660;10.200;2023-10-08T02:21:53;14.60;94.20
20337;DHT22;10326;53.660;10.200;2023-10-08T02:24:23;14.60;94.20
20337;DHT22;10326;53.660;10.200;2023-10-08T02:26:53;14.60;94.10
20337;DHT22;10326;53.660;10.200;2023-10-08T02:29:29;14.70;94.10
20337;DHT22;10326;53.660;10.200;2023-10-08T02:31:58;14.60;94.00
20337;DHT22;10326;53.660;10.200;2023-10-08T02:34:26;14.60;94.00
20337;DHT22;10326;53.660;10.200;2023-10-08T02:36:57;14.70;94.00
20337;DHT22;10326;53.660;10.200;2023-10-08T02:39:31;14.60;94.00
20337;DHT22;10326;53.660;10.200;2023-10-08T02:42:01;14.60;94.00
20337;DHT22;10326;53.660;10.200;2023-10-08T02:44:36;14.70;94.10
20337;DHT22;10326;53.660;10.200;2023-10-08T02:47:08;14.70;94.00
20337;DHT22;10326;53.660;10.200;2023-10-08T02:49:38;14.70;94.00
20337;DHT22;10326;53.660;10.200;2023-10-08T02:52:09;14.60;94.00
20337;DHT22;10326;53.660;10.200;2023-10-08T02:54:40;14.70;93.90
20337;DHT22;10326;53.660;10.200;2023-10-08T02:57:10;14.70;93.90
20337;DHT22;10326;53.660;10.200;2023-10-08T02:59:40;14.60;93.80
20337;DHT22;10326;53.660;10.200;2023-10-08T03:02:13;14.60;93.90
20337;DHT22;10326;53.660;10.200;2023-10-08T03:04:45;14.60;93.80
20337;DHT22;10326;53.660;10.200;2023-10-08T03:07:14;14.60;93.80
20337;DHT22;10326;53.660;10.200;2023-10-08T03:09:53;14.60;93.90
20337;DHT22;10326;53.660;10.200;2023-10-08T03:12:30;14.50;93.80
20337;DHT22;10326;53.660;10.200;2023-10-08T03:15:00;14.50;93.70
20337;DHT22;10326;53.660;10.200;2023-10-08T03:17:38;14.50;93.70
20337;DHT22;10326;53.660;10.200;2023-10-08T03:20:14;14.50;93.80
20337;DHT22;10326;53.660;10.200;2023-10-08T03:22:57;14.50;93.80
20337;DHT22;10326;53.660;10.200;2023-10-08T03:25:33;14.50;93.80
20337;DHT22;10326;53.660;10.200;2023-10-08T03:28:07;14.50;93.70
20337;DHT22;10326;53.660;10.200;2023-10-08T03:30:38;14.50;93.70
20337;DHT22;10326;53.660;10.200;2023-10-08T03:33:17;14.40;93.70
20337;DHT22;10326;53.660;10.200;2023-10-08T03:35:49;14.40;93.80
20337;DHT22;10326;53.660;10.200;2023-10-08T03:38:20;14.40;93.70
20337;DHT22;10326;53.660;10.200;2023-10-08T03:40:57;14.40;93.80
20337;DHT22;10326;53.660;10.200;2023-10-08T03:43:32;14.40;93.80
20337;DHT22;10326;53.660;10.200;2023-10-08T03:46:12;14.40;93.80
20337;DHT22;10326;53.660;10.200;2023-10-08T03:48:43;14.40;93.80
20337;DHT22;10326;53.660;10.200;2023-10-08T03:51:11;14.40;93.70
20337;DHT22;10326;53.660;10.200;2023-10-08T03:53:41;14.40;93.70
20337;DHT22;10326;53.660;10.200;2023-10-08T03:56:28;14.40;93.70
20337;DHT22;10326;53.660;10.200;2023-10-08T03:58:58;14.40;93.70
20337;DHT22;10326;53.660;10.200;2023-10-08T04:01:38;14.40;93.90
20337;DHT22;10326;53.660;10.200;2023-10-08T04:04:09;14.40;93.60
20337;DHT22;10326;53.660;10.200;2023-10-08T04:06:41;14.40;93.70
20337;DHT22;10326;53.660;10.200;2023-10-08T04:09:15;14.40;93.60
20337;DHT22;10326;53.660;10.200;2023-10-08T04:11:52;14.40;93.50
20337;DHT22;10326;53.660;10.200;2023-10-08T04:14:23;14.40;93.50
20337;DHT22;10326;53.660;10.200;2023-10-08T04:16:53;14.40;93.50
20337;DHT22;10326;53.660;10.200;2023-10-08T04:19:23;14.30;93.40
20337;DHT22;10326;53.660;10.200;2023-10-08T04:21:53;14.30;93.40
20337;DHT22;10326;53.660;10.200;2023-10-08T04:24:23;14.30;93.40
20337;DHT22;10326;53.660;10.200;2023-10-08T04:27:02;14.30;93.40
20337;DHT22;10326;53.660;10.200;2023-10-08T04:29:34;14.30;93.60
20337;DHT22;10326;53.660;10.200;2023-10-08T04:32:03;14.20;93.30
20337;DHT22;10326;53.660;10.200;2023-10-08T04:34:35;14.20;93.30
20337;DHT22;10326;53.660;10.200;2023-10-08T04:37:05;14.20;93.30
20337;DHT22;10326;53.660;10.200;2023-10-08T04:39:38;14.20;93.30
20337;DHT22;10326;53.660;10.200;2023-10-08T04:42:15;14.20;93.20
20337;DHT22;10326;53.660;10.200;2023-10-08T04:44:51;14.10;93.20
20337;DHT22;10326;53.660;10.200;2023-10-08T04:47:20;14.10;93.20
20337;DHT22;10326;53.660;10.200;2023-10-08T04:50:00;14.10;93.20
20337;DHT22;10326;53.660;10.200;2023-10-08T04:52:31;14.00;93.20
20337;DHT22;10326;53.660;10.200;2023-10-08T04:55:12;14.00;93.30
20337;DHT22;10326;53.660;10.200;2023-10-08T04:57:49;14.00;93.30
20337;DHT22;10326;53.660;10.200;2023-10-08T05:00:19;14.00;93.20
20337;DHT22;10326;53.660;10.200;2023-10-08T05:03:06;14.00;93.20
20337;DHT22;10326;53.660;10.200;2023-10-08T05:05:40;14.00;93.20
20337;DHT22;10326;53.660;10.200;2023-10-08T05:08:32;14.00;93.20
20337;DHT22;10326;53.660;10.200;2023-10-08T05:11:13;13.90;93.30
20337;DHT22;10326;53.660;10.200;2023-10-08T05:14:03;13.90;93.30
20337;DHT22;10326;53.660;10.200;2023-10-08T05:16:42;13.90;93.30
20337;DHT22;10326;53.660;10.200;2023-10-08T05:19:26;13.90;93.30
20337;DHT22;10326;53.660;10.200;2023-10-08T05:22:12;13.90;93.20
20337;DHT22;10326;53.660;10.200;2023-10-08T05:25:01;13.90;93.20
20337;DHT22;10326;53.660;10.200;2023-10-08T05:27:38;13.90;93.30
20337;DHT22;10326;53.660;10.200;2023-10-08T05:30:23;13.90;93.20
20337;DHT22;10326;53.660;10.200;2023-10-08T05:33:04;13.90;93.20
20337;DHT22;10326;53.660;10.200;2023-10-08T05:35:50;13.80;93.30
20337;DHT22;10326;53.660;10.200;2023-10-08T05:38:28;13.90;93.30
20337;DHT22;10326;53.660;10.200;2023-10-08T05:41:14;13.80;93.30
20337;DHT22;10326;53.660;10.200;2023-10-08T05:44:05;13.90;93.30
20337;DHT22;10326;53.660;10.200;2023-10-08T05:46:51;13.80;93.20
20337;DHT22;10326;53.660;10.200;2023-10-08T05:49:33;13.80;93.10
20337;DHT22;10326;53.660;10.200;2023-10-08T05:52:40;13.80;93.10
20337;DHT22;10326;53.660;10.200;2023-10-08T05:55:16;13.80;93.10
20337;DHT22;10326;53.660;10.200;2023-10-08T05:57:52;13.80;93.10
20337;DHT22;10326;53.660;10.200;2023-10-08T06:00:28;13.80;93.10
20337;DHT22;10326;53.660;10.200;2023-10-08T06:03:29;13.80;93.10
20337;DHT22;10326;53.660;10.200;2023-10-08T06:06:04;13.80;93.10
20337;DHT22;10326;53.660;10.200;2023-10-08T06:09:02;13.70;93.10
20337;DHT22;10326;53.660;10.200;2023-10-08T06:11:49;13.70;93.00
20337;DHT22;10326;53.660;10.200;2023-10-08T06:14:38;13.70;93.00
20337;DHT22;10326;53.660;10.200;2023-10-08T06:17:35;13.70;93.00
20337;DHT22;10326;53.660;10.200;2023-10-08T06:20:27;13.70;93.00
20337;DHT22;10326;53.660;10.200;2023-10-08T06:22:55;13.60;92.90
20337;DHT22;10326;53.660;10.200;2023-10-08T06:25:29;13.60;92.90
20337;DHT22;10326;53.660;10.200;2023-10-08T06:27:57;13.60;92.90
20337;DHT22;10326;53.660;10.200;2023-10-08T06:30:25;13.60;92.90
20337;DHT22;10326;53.660;10.200;2023-10-08T06:32:55;13.60;93.00
20337;DHT22;10326;53.660;10.200;2023-10-08T06:35:24;13.60;92.90
20337;DHT22;10326;53.660;10.200;2023-10-08T06:37:55;13.50;92.90
20337;DHT22;10326;53.660;10.200;2023-10-08T06:40:25;13.50;92.80
20337;DHT22;10326;53.660;10.200;2023-10-08T06:43:08;13.50;92.80
20337;DHT22;10326;53.660;10.200;2023-10-08T06:45:44;13.50;92.80
20337;DHT22;10326;53.660;10.200;2023-10-08T06:48:13;13.50;92.80
20337;DHT22;10326;53.660;10.200;2023-10-08T06:50:47;13.40;92.80
20337;DHT22;10326;53.660;10.200;2023-10-08T06:53:21;13.40;92.80
20337;DHT22;10326;53.660;10.200;2023-10-08T06:55:50;13.50;93.10
20337;DHT22;10326;53.660;10.200;2023-10-08T06:58:22;13.40;92.90
20337;DHT22;10326;53.660;10.200;2023-10-08T07:00:51;13.40;92.90
20337;DHT22;10326;53.660;10.200;2023-10-08T07:03:21;13.40;92.90
20337;DHT22;10326;53.660;10.200;2023-10-08T07:05:51;13.40;93.00
20337;DHT22;10326;53.660;10.200;2023-10-08T07:08:27;13.40;93.00
20337;DHT22;10326;53.660;10.200;2023-10-08T07:10:58;13.40;93.10
20337;DHT22;10326;53.660;10.200;2023-10-08T07:13:27;13.40;93.10
20337;DHT22;10326;53.660;10.200;2023-10-08T07:15:57;13.40;93.20
20337;DHT22;10326;53.660;10.200;2023-10-08T07:18:25;13.40;93.20
20337;DHT22;10326;53.660;10.200;2023-10-08T07:20:55;13.50;93.20
20337;DHT22;10326;53.660;10.200;2023-10-08T07:23:30;13.50;93.30
20337;DHT22;10326;53.660;10.200;2023-10-08T07:26:02;13.50;93.30
20337;DHT22;10326;53.660;10.200;2023-10-08T07:28:45;13.50;93.30
20337;DHT22;10326;53.660;10.200;2023-10-08T07:31:18;13.50;93.30
20337;DHT22;10326;53.660;10.200;2023-10-08T07:33:58;13.60;93.30
20337;DHT22;10326;53.660;10.200;2023-10-08T07:36:43;13.60;93.30
20337;DHT22;10326;53.660;10.200;2023-10-08T07:39:17;13.60;93.30
20337;DHT22;10326;53.660;10.200;2023-10-08T07:42:01;13.60;93.30
20337;DHT22;10326;53.660;10.200;2023-10-08T07:44:36;13.70;93.40
20337;DHT22;10326;53.660;10.200;2023-10-08T07:47:11;13.70;93.40
20337;DHT22;10326;53.660;10.200;2023-10-08T07:49:53;13.70;93.40
20337;DHT22;10326;53.660;10.200;2023-10-08T09:48:53;15.40;93.40
20337;DHT22;10326;53.660;10.200;2023-10-08T09:52:04;15.50;93.40
20337;DHT22;10326;53.660;10.200;2023-10-08T10:03:54;15.70;93.30
20337;DHT22;10326;53.660;10.200;2023-10-08T10:11:34;15.70;93.10
20337;DHT22;10326;53.660;10.200;2023-10-08T10:26:31;15.90;92.50
20337;DHT22;10326;53.660;10.200;2023-10-08T23:58:04;15.30;92.10
